Terminal Aerodrome Forecast
Issued by NWS St Louis, MO

Home | Current Version | Previous Version | Text Only | Print | Product List | Glossary On
Versions: 1 2 3 4 5 6 7 8 9 10 11 12 13 14 15 16 17 18 19 20 21 22 23
000
FTUS43 KLSX 282336
TAFSTL
TAF
KSTL 282336Z 2900/3006 11005KT P6SM VCTS SCT040CB SCT250
     FM290200 20005KT P6SM SCT250
     FM291400 32008KT P6SM SCT100 BKN250
     FM291800 34009KT P6SM VCTS BKN040CB
     FM300000 34006KT P6SM SCT040=

USA.gov is the U.S. government's official web portal to all federal, state and local government web resources and services.